Time;durP1;ratioP1;P1;durP2;ratioP2;P2;SDS_P1;SDS_P2;PMS_P1;PMS_P2;Temp;Humidity;BMP_temperature;BMP_pressure;BME280_temperature;BME280_humidity;BME280_pressure;Samples;Min_cycle;Max_cycle;Signal;HPM_P1;HPM_P2
2022/01/28 00:03:00;;;;;;;3.65;1.20;;;;;;;-145.06;0.00;60892.56;4878181;28;20068;-88
2022/01/28 00:05:39;;;;;;;5.15;1.45;;;;;;;-145.06;0.00;60892.56;4856378;28;20773;-88
2022/01/28 00:08:18;;;;;;;6.25;1.40;;;;;;;-145.06;0.00;60892.56;4853284;28;20033;-88
2022/01/28 00:10:57;;;;;;;4.55;1.33;;;;;;;-145.06;0.00;60892.56;4857246;28;20041;-87
2022/01/28 00:13:40;;;;;;;2.77;1.10;;;;;;;-145.06;0.00;60892.56;4884659;28;20045;-88
2022/01/28 00:19:25;;;;;;;3.33;1.30;;;;;;;-145.06;0.00;60892.56;4859618;28;20037;-89
2022/01/28 00:37:07;;;;;;;3.10;1.20;;;;;;;-145.06;0.00;60892.56;4857033;28;20037;-89
2022/01/28 00:39:45;;;;;;;3.47;1.33;;;;;;;-145.06;0.00;60892.56;4855679;28;20037;-88
2022/01/28 00:42:24;;;;;;;5.10;1.73;;;;;;;6.70;0.00;60892.56;4856174;28;20030;-89
2022/01/28 00:45:04;;;;;;;4.32;1.50;;;;;;;-145.06;0.00;60892.56;4855216;28;20061;-88
2022/01/28 00:47:44;;;;;;;5.45;1.45;;;;;;;-145.06;0.00;60892.56;4856415;28;20048;-89
2022/01/28 00:50:23;;;;;;;4.30;1.80;;;;;;;-145.06;0.00;60892.56;4865524;28;20037;-88
2022/01/28 00:53:02;;;;;;;6.05;1.90;;;;;;;-145.06;0.00;60892.56;4863704;28;20115;-89
2022/01/28 00:55:41;;;;;;;2.92;1.20;;;;;;;-145.06;0.00;60892.56;4854444;28;20108;-89
2022/01/28 00:58:21;;;;;;;4.32;1.48;;;;;;;-145.06;0.00;60892.56;4855030;28;20041;-88
2022/01/28 01:01:00;;;;;;;;;;;;;;;-145.06;0.00;60892.56;4859928;28;20116;-90
2022/01/28 01:03:40;;;;;;;3.10;1.35;;;;;;;-145.06;0.00;60892.56;4861503;28;19913;-88
2022/01/28 01:06:18;;;;;;;3.30;1.20;;;;;;;-145.06;0.00;60892.56;4851746;28;20041;-88
2022/01/28 01:08:59;;;;;;;4.10;1.20;;;;;;;-145.06;0.00;60892.56;4872953;28;20033;-89
2022/01/28 01:11:40;;;;;;;2.53;1.10;;;;;;;-145.06;0.00;60892.56;4873569;28;20041;-88
2022/01/28 01:14:19;;;;;;;4.75;1.10;;;;;;;-145.06;0.00;60892.56;4855885;28;20029;-89
2022/01/28 01:19:42;;;;;;;4.07;1.10;;;;;;;8.08;0.00;60892.56;4864992;28;20029;-89
2022/01/28 01:22:21;;;;;;;4.82;1.17;;;;;;;8.08;0.00;60892.56;4857094;28;20268;-89
2022/01/28 01:25:04;;;;;;;2.30;1.03;;;;;;;-145.06;0.00;60892.56;4853433;28;20029;-90
2022/01/28 01:27:45;;;;;;;6.30;1.20;;;;;;;-145.06;0.00;60892.56;4850025;28;20029;-88
2022/01/28 01:30:28;;;;;;;2.55;0.95;;;;;;;-145.06;0.00;60892.56;4854727;28;20037;-88
2022/01/28 01:33:08;;;;;;;3.05;1.30;;;;;;;6.30;0.00;60892.56;4854444;28;20037;-88
2022/01/28 01:35:47;;;;;;;1.92;0.90;;;;;;;-145.06;0.00;60892.56;4854028;28;20037;-89
2022/01/28 01:38:31;;;;;;;2.20;1.13;;;;;;;-145.06;0.00;60892.56;4864097;28;20032;-89
2022/01/28 01:41:13;;;;;;;2.60;1.20;;;;;;;-145.06;0.00;60892.56;4870735;28;20036;-88
2022/01/28 01:52:20;;;;;;;3.83;1.00;;;;;;;-145.06;0.00;60892.56;4853700;28;20029;-88
2022/01/28 01:54:59;;;;;;;3.80;0.98;;;;;;;-145.06;0.00;60892.56;4854268;28;20679;-89
2022/01/28 01:57:39;;;;;;;4.83;0.90;;;;;;;-145.06;0.00;60892.56;4841113;28;20384;-89
2022/01/28 02:00:19;;;;;;;3.45;1.10;;;;;;;-145.06;0.00;60892.56;4853998;28;20503;-88
2022/01/28 02:02:57;;;;;;;2.17;0.80;;;;;;;-145.06;0.00;60892.56;4851175;28;20072;-88
2022/01/28 02:05:36;;;;;;;4.43;1.17;;;;;;;-145.06;0.00;60892.56;4852648;28;20041;-88
2022/01/28 02:08:15;;;;;;;2.33;0.77;;;;;;;-145.06;0.00;60892.56;4854716;28;20033;-89
2022/01/28 02:10:59;;;;;;;4.90;1.63;;;;;;;-145.06;0.00;60892.56;4855831;28;20029;-89
2022/01/28 02:13:39;;;;;;;3.35;1.10;;;;;;;-145.06;0.00;60892.56;4853311;28;20033;-89
2022/01/28 02:16:19;;;;;;;3.00;1.20;;;;;;;-145.06;0.00;60892.56;4882695;28;20034;-89
2022/01/28 02:18:58;;;;;;;3.17;1.38;;;;;;;-145.06;0.00;60892.56;4884499;28;20045;-89
2022/01/28 02:21:44;;;;;;;2.92;1.55;;;;;;;-145.06;0.00;60892.56;4877846;28;20357;-89
2022/01/28 02:24:29;;;;;;;5.13;1.27;;;;;;;-145.06;0.00;60892.56;4854941;28;20057;-90
2022/01/28 02:27:10;;;;;;;3.63;1.38;;;;;;;-145.06;0.00;60892.56;4881875;28;20488;-89
2022/01/28 02:29:50;;;;;;;3.60;1.23;;;;;;;-145.06;0.00;60892.56;4855137;28;20037;-89
2022/01/28 02:32:29;;;;;;;;;;;;;;;-145.06;0.00;60892.56;4854745;28;20065;-89
2022/01/28 02:35:09;;;;;;;4.10;1.70;;;;;;;-145.06;0.00;60892.56;4850725;28;19920;-89
2022/01/28 02:37:49;;;;;;;7.45;2.15;;;;;;;-145.06;0.00;60892.56;4853560;28;20473;-90
2022/01/28 02:40:28;;;;;;;6.18;2.13;;;;;;;-145.06;0.00;60892.56;4852319;28;20042;-89
2022/01/28 02:46:10;;;;;;;4.85;2.28;;;;;;;-145.06;0.00;60892.56;4851831;28;20033;-89
2022/01/28 02:49:00;;;;;;;4.10;1.70;;;;;;;-145.06;0.00;60892.56;4882692;28;20041;-88
2022/01/28 02:51:39;;;;;;;4.13;1.70;;;;;;;-145.06;0.00;60892.56;4851048;28;20053;-90
2022/01/28 02:54:18;;;;;;;4.63;1.63;;;;;;;5.41;0.00;60892.56;4853803;28;20040;-90
2022/01/28 02:57:05;;;;;;;3.33;1.63;;;;;;;-145.06;0.00;60892.56;4855015;28;20037;-88
2022/01/28 02:59:44;;;;;;;5.47;1.63;;;;;;;-145.06;0.00;60892.56;4838007;28;20038;-89
2022/01/28 03:02:23;;;;;;;4.65;1.52;;;;;;;5.42;0.00;60892.56;4855144;28;20105;-90
2022/01/28 03:05:09;;;;;;;4.10;1.30;;;;;;;10.68;0.00;60892.56;4853282;28;20049;-89
2022/01/28 03:07:48;;;;;;;2.45;1.10;;;;;;;-145.06;0.00;60892.56;4850609;28;20416;-89
2022/01/28 03:10:31;;;;;;;1.55;1.13;;;;;;;5.49;0.00;60892.56;4854124;28;20029;-89
2022/01/28 03:15:54;;;;;;;3.70;1.23;;;;;;;-145.06;0.00;60892.56;4857276;28;20117;-89
2022/01/28 03:18:44;;;;;;;4.35;1.20;;;;;;;5.33;0.00;60892.56;4856131;28;20033;-90
2022/01/28 03:24:11;;;;;;;2.00;0.98;;;;;;;187.52;0.00;60892.56;4853455;28;20069;-86
2022/01/28 03:26:55;;;;;;;5.95;1.42;;;;;;;5.35;0.00;60892.56;4857394;28;20065;-88
2022/01/28 03:29:35;;;;;;;4.93;1.25;;;;;;;5.35;0.00;60892.56;4856362;28;20033;-88
2022/01/28 03:32:13;;;;;;;1.80;0.90;;;;;;;-145.06;0.00;60892.56;4885494;28;20033;-88
2022/01/28 03:34:52;;;;;;;3.90;1.27;;;;;;;187.52;0.00;60892.56;4856189;28;20049;-89
2022/01/28 03:37:31;;;;;;;3.50;1.13;;;;;;;5.31;0.00;60892.56;4885655;28;20029;-89
2022/01/28 03:40:11;;;;;;;5.00;1.10;;;;;;;-145.06;0.00;60892.56;4857381;28;20499;-89
2022/01/28 03:42:50;;;;;;;2.40;1.05;;;;;;;5.49;0.00;60892.56;4858699;28;20033;-90
2022/01/28 03:45:29;;;;;;;3.50;1.20;;;;;;;10.68;0.00;60892.56;4859537;28;20388;-89
2022/01/28 03:48:08;;;;;;;2.33;1.23;;;;;;;5.26;0.00;60892.56;4856573;28;20241;-88
2022/01/28 03:50:50;;;;;;;4.70;1.48;;;;;;;-145.06;0.00;60892.56;4859333;28;20479;-89
2022/01/28 03:53:29;;;;;;;3.53;1.20;;;;;;;-145.06;0.00;60892.56;4884828;28;20040;-88
2022/01/28 03:56:08;;;;;;;4.07;1.37;;;;;;;5.22;0.00;60892.56;4858020;28;20037;-89
2022/01/28 03:58:47;;;;;;;4.43;1.50;;;;;;;-145.06;0.00;60892.56;4858209;28;20045;-89
2022/01/28 04:01:32;;;;;;;6.45;1.35;;;;;;;5.24;0.00;60892.56;4855352;28;20037;-89
2022/01/28 04:13:10;;;;;;;5.30;1.80;;;;;;;-145.06;0.00;60892.56;4862243;28;20041;-88
2022/01/28 04:18:50;;;;;;;4.40;1.40;;;;;;;-145.06;0.00;60892.56;4850482;28;20037;-88
2022/01/28 04:21:30;;;;;;;6.35;1.60;;;;;;;-145.06;0.00;60892.56;4859217;28;20037;-88
2022/01/28 04:24:09;;;;;;;2.63;1.30;;;;;;;-145.06;0.00;60892.56;4854163;28;20037;-89
2022/01/28 04:26:48;;;;;;;4.27;1.13;;;;;;;-145.06;0.00;60892.56;4856393;28;20033;-88
2022/01/28 04:29:27;;;;;;;2.20;1.17;;;;;;;-145.06;0.00;60892.56;4885342;28;20029;-88
2022/01/28 04:32:06;;;;;;;3.20;1.07;;;;;;;-145.06;0.00;60892.56;4856930;28;20299;-89
2022/01/28 04:34:46;;;;;;;2.13;1.00;;;;;;;187.52;0.00;60892.56;4858050;28;20380;-89
2022/01/28 04:46:01;;;;;;;1.65;0.88;;;;;;;-145.06;0.00;60892.56;4854691;28;20475;-89
2022/01/28 04:55:04;;;;;;;1.60;0.95;;;;;;;10.68;0.00;60892.56;4851453;28;20045;-89
2022/01/28 05:03:33;;;;;;;3.78;1.50;;;;;;;-145.06;0.00;60892.56;4856116;28;20033;-89
2022/01/28 05:12:37;;;;;;;3.35;1.45;;;;;;;-145.06;0.00;60892.56;4856253;28;20140;-89
2022/01/28 05:26:32;;;;;;;4.70;1.42;;;;;;;-145.06;0.00;60892.56;4855940;28;20029;-89
2022/01/28 05:29:12;;;;;;;4.22;1.45;;;;;;;10.68;0.00;60892.56;4883042;28;20045;-88
2022/01/28 05:31:51;;;;;;;3.65;1.42;;;;;;;5.32;0.00;60892.56;4854818;28;20033;-89
2022/01/28 05:34:30;;;;;;;5.43;1.65;;;;;;;-145.06;0.00;60892.56;4855156;28;20045;-88
2022/01/28 05:37:09;;;;;;;5.00;1.30;;;;;;;-145.06;0.00;60892.56;4855796;28;20676;-88
2022/01/28 05:39:48;;;;;;;3.00;1.48;;;;;;;-145.06;0.00;60892.56;4858972;28;20034;-89
2022/01/28 05:42:27;;;;;;;3.93;1.60;;;;;;;21.08;0.00;60892.56;4884723;28;20737;-89
2022/01/28 05:45:06;;;;;;;4.65;1.58;;;;;;;-145.06;0.00;60892.56;4882132;28;20034;-88
2022/01/28 05:47:45;;;;;;;6.45;1.90;;;;;;;-145.06;0.00;60892.56;4856339;28;20722;-89
2022/01/28 05:50:24;;;;;;;1.93;1.23;;;;;;;-145.06;0.00;60892.56;4862631;28;20056;-88
2022/01/28 05:53:03;;;;;;;4.00;1.70;;;;;;;5.41;0.00;60892.56;4851908;28;20041;-89
2022/01/28 05:55:43;;;;;;;3.75;1.30;;;;;;;5.38;0.00;60892.56;4849079;28;20061;-90
2022/01/28 05:58:22;;;;;;;4.22;1.63;;;;;;;5.38;0.00;60892.56;4854223;28;20022;-90
2022/01/28 06:01:00;;;;;;;3.10;1.25;;;;;;;10.68;0.00;60892.56;4849945;28;20050;-89
2022/01/28 06:03:39;;;;;;;3.87;1.40;;;;;;;5.37;0.00;60892.56;4854690;28;20120;-90
2022/01/28 06:06:20;;;;;;;4.65;1.50;;;;;;;5.41;0.00;60892.56;4851270;28;20276;-91
2022/01/28 06:08:59;;;;;;;3.80;1.35;;;;;;;21.08;0.00;60892.56;4852689;28;20041;-89
2022/01/28 06:11:38;;;;;;;4.10;1.40;;;;;;;5.33;0.00;60892.56;4851301;28;20033;-89
2022/01/28 06:14:17;;;;;;;3.78;1.30;;;;;;;-145.06;0.00;60892.56;4881475;28;20045;-90
2022/01/28 06:16:56;;;;;;;2.90;1.20;;;;;;;-145.06;0.00;60892.56;4852331;28;20121;-89
2022/01/28 06:19:35;;;;;;;3.20;1.40;;;;;;;-145.06;0.00;60892.56;4853387;28;20029;-88
2022/01/28 06:22:14;;;;;;;4.30;1.20;;;;;;;187.52;0.00;60892.56;4882583;28;20065;-90
2022/01/28 06:24:53;;;;;;;2.23;1.10;;;;;;;-145.06;0.00;60892.56;4859312;28;20041;-90
2022/01/28 06:27:32;;;;;;;2.15;1.10;;;;;;;-145.06;0.00;60892.56;4854574;28;20021;-90
2022/01/28 06:30:12;;;;;;;2.47;0.93;;;;;;;5.29;0.00;60892.56;4852668;28;20033;-90
2022/01/28 06:32:52;;;;;;;2.92;1.17;;;;;;;187.52;0.00;60892.56;4853671;28;20033;-89
2022/01/28 06:35:31;;;;;;;1.70;1.08;;;;;;;5.26;0.00;60892.56;4878434;28;20041;-90
2022/01/28 06:38:10;;;;;;;1.90;0.82;;;;;;;5.27;0.00;60892.56;4852058;28;20439;-89
2022/01/28 06:40:50;;;;;;;2.60;1.00;;;;;;;5.28;0.00;60892.56;4848617;28;20041;-90
2022/01/28 06:43:29;;;;;;;1.63;0.82;;;;;;;5.26;0.00;60892.56;4852053;28;20041;-90
2022/01/28 06:46:08;;;;;;;1.63;0.80;;;;;;;-145.06;0.00;60892.56;4878151;28;20483;-88
2022/01/28 06:48:46;;;;;;;3.67;1.00;;;;;;;-145.06;0.00;60892.56;4859263;28;20033;-90
2022/01/28 06:51:26;;;;;;;1.25;0.80;;;;;;;-145.06;0.00;60892.56;4854109;28;20276;-89
2022/01/28 06:54:05;;;;;;;1.63;0.90;;;;;;;-145.06;0.00;60892.56;4860190;28;20375;-90
2022/01/28 06:56:44;;;;;;;2.15;1.02;;;;;;;-145.06;0.00;60892.56;4861327;28;20025;-89
2022/01/28 06:59:23;;;;;;;2.35;0.93;;;;;;;-145.06;0.00;60892.56;4862463;28;20495;-90
2022/01/28 07:02:02;;;;;;;1.47;1.10;;;;;;;-145.06;0.00;60892.56;4856183;28;20036;-89
2022/01/28 07:04:41;;;;;;;2.30;1.20;;;;;;;-145.06;0.00;60892.56;4856323;28;20140;-90
2022/01/28 07:07:22;;;;;;;3.20;1.45;;;;;;;-145.06;0.00;60892.56;4855611;28;20037;-88
2022/01/28 07:10:02;;;;;;;4.03;1.58;;;;;;;-145.06;0.00;60892.56;4856413;28;20483;-89
2022/01/28 07:12:41;;;;;;;;;;;;;;;-145.06;0.00;60892.56;4880886;28;20702;-89
2022/01/28 07:15:25;;;;;;;2.83;1.23;;;;;;;-145.06;0.00;60892.56;4858454;28;19917;-89
2022/01/28 07:18:04;;;;;;;4.18;1.23;;;;;;;-145.06;0.00;60892.56;4865196;28;20037;-89
2022/01/28 07:20:44;;;;;;;2.92;1.45;;;;;;;-145.06;0.00;60892.56;4854716;28;20030;-89
2022/01/28 07:23:22;;;;;;;2.63;1.52;;;;;;;-145.06;0.00;60892.56;4854275;28;20041;-90
2022/01/28 07:26:02;;;;;;;3.60;1.27;;;;;;;-145.06;0.00;60892.56;4870894;28;20542;-89
2022/01/28 07:28:41;;;;;;;2.90;1.55;;;;;;;-145.06;0.00;60892.56;4855521;28;20033;-89
2022/01/28 07:31:21;;;;;;;2.08;1.23;;;;;;;-145.06;0.00;60892.56;4857513;28;20033;-90
2022/01/28 07:34:01;;;;;;;2.72;1.35;;;;;;;-145.06;0.00;60892.56;4838071;28;20030;-89
2022/01/28 07:36:40;;;;;;;3.38;1.42;;;;;;;-145.06;0.00;60892.56;4851929;28;20026;-89
2022/01/28 07:39:19;;;;;;;2.57;1.43;;;;;;;-145.06;0.00;60892.56;4850372;28;20658;-89
2022/01/28 07:41:58;;;;;;;1.85;1.15;;;;;;;-145.06;0.00;60892.56;4853187;28;20045;-89
2022/01/28 07:44:37;;;;;;;2.67;1.27;;;;;;;-145.06;0.00;60892.56;4856558;28;20483;-90
2022/01/28 07:47:16;;;;;;;2.72;1.52;;;;;;;-145.06;0.00;60892.56;4857039;28;20025;-90
2022/01/28 07:49:55;;;;;;;2.80;1.73;;;;;;;-145.06;0.00;60892.56;4866813;28;20033;-90
2022/01/28 07:52:35;;;;;;;3.45;1.70;;;;;;;-145.06;0.00;60892.56;4856544;28;20036;-90
2022/01/28 07:55:14;;;;;;;2.72;1.60;;;;;;;-145.06;0.00;60892.56;4856399;28;20029;-89
2022/01/28 07:57:54;;;;;;;2.63;1.52;;;;;;;-145.06;0.00;60892.56;4858515;28;20478;-90
2022/01/28 08:00:33;;;;;;;3.20;1.47;;;;;;;-145.06;0.00;60892.56;4860640;28;20065;-89
2022/01/28 08:03:12;;;;;;;2.55;1.50;;;;;;;-145.06;0.00;60892.56;4872538;28;20276;-89
2022/01/28 08:05:51;;;;;;;1.65;1.30;;;;;;;-145.06;0.00;60892.56;4876572;28;20025;-89
2022/01/28 08:08:30;;;;;;;3.67;1.83;;;;;;;-145.06;0.00;60892.56;4888500;28;20116;-90
2022/01/28 08:11:10;;;;;;;3.05;1.50;;;;;;;-145.06;0.00;60892.56;4858504;28;20276;-88
2022/01/28 08:13:49;;;;;;;1.95;1.38;;;;;;;-145.06;0.00;60892.56;4862710;28;20077;-89
2022/01/28 08:16:27;;;;;;;2.30;1.37;;;;;;;-145.06;0.00;60892.56;4858158;28;20065;-89
2022/01/28 08:19:06;;;;;;;3.13;1.77;;;;;;;-145.06;0.00;60892.56;4857018;28;20379;-89
2022/01/28 08:21:45;;;;;;;3.13;2.13;;;;;;;-145.06;0.00;60892.56;4857218;28;20037;-89
2022/01/28 08:24:24;;;;;;;3.33;1.80;;;;;;;-145.06;0.00;60892.56;4873705;28;20438;-88
2022/01/28 08:27:04;;;;;;;4.67;2.20;;;;;;;-145.06;0.00;60892.56;4856920;28;20256;-89
2022/01/28 08:29:43;;;;;;;4.00;1.83;;;;;;;-145.06;0.00;60892.56;4856483;28;20033;-89
2022/01/28 08:32:22;;;;;;;3.80;1.80;;;;;;;-145.06;0.00;60892.56;4857887;28;20034;-90
2022/01/28 08:35:06;;;;;;;2.70;1.80;;;;;;;-145.06;0.00;60892.56;4851544;28;20033;-89
2022/01/28 08:37:46;;;;;;;3.38;1.70;;;;;;;-145.06;0.00;60892.56;4856885;28;20042;-89
2022/01/28 08:40:26;;;;;;;;;;;;;;;-145.06;0.00;60892.56;4885440;28;20041;-88
2022/01/28 08:43:08;;;;;;;;;;;;;;;-145.06;0.00;60892.56;4859445;28;19964;-89
2022/01/28 08:45:48;;;;;;;2.50;1.77;;;;;;;-145.06;0.00;60892.56;4856969;28;19948;-89
2022/01/28 08:48:26;;;;;;;3.63;2.28;;;;;;;-145.06;0.00;60892.56;4861402;28;20041;-89
2022/01/28 08:51:05;;;;;;;3.70;2.15;;;;;;;-145.06;0.00;60892.56;4861768;28;20065;-89
2022/01/28 08:53:44;;;;;;;5.53;2.58;;;;;;;-145.06;0.00;60892.56;4855950;28;20569;-89
2022/01/28 08:56:23;;;;;;;5.82;2.60;;;;;;;-145.06;0.00;60892.56;4866442;28;20053;-90
2022/01/28 08:59:02;;;;;;;6.25;2.75;;;;;;;-145.06;0.00;60892.56;4845797;28;20604;-89
2022/01/28 09:01:41;;;;;;;3.67;2.50;;;;;;;-145.06;0.00;60892.56;4857107;28;20140;-89
2022/01/28 09:04:20;;;;;;;4.93;2.57;;;;;;;-145.06;0.00;60892.56;4858298;28;20033;-89
2022/01/28 09:06:59;;;;;;;6.13;3.17;;;;;;;-145.06;0.00;60892.56;4885147;28;20264;-89
2022/01/28 09:09:48;;;;;;;6.07;2.93;;;;;;;-145.06;0.00;60892.56;4856312;28;20038;-89
2022/01/28 09:15:08;;;;;;;6.25;3.10;;;;;;;-145.06;0.00;60892.56;4867217;28;20069;-90
2022/01/28 09:17:47;;;;;;;5.35;2.55;;;;;;;-145.06;0.00;60892.56;4855557;28;20369;-89
2022/01/28 09:20:32;;;;;;;3.63;2.53;;;;;;;-145.06;0.00;60892.56;4867179;28;20041;-89
2022/01/28 09:23:11;;;;;;;7.03;2.60;;;;;;;-145.06;0.00;60892.56;4882228;28;20076;-88
2022/01/28 09:25:50;;;;;;;6.53;3.10;;;;;;;-145.06;0.00;60892.56;4853812;28;20061;-89
2022/01/28 09:28:29;;;;;;;5.47;3.17;;;;;;;-145.06;0.00;60892.56;4856896;28;20554;-89
2022/01/28 09:31:08;;;;;;;7.47;3.00;;;;;;;-145.06;0.00;60892.56;4856591;28;20264;-89
2022/01/28 09:33:47;;;;;;;4.88;2.60;;;;;;;-145.06;0.00;60892.56;4853226;28;20033;-89
2022/01/28 09:36:26;;;;;;;4.53;2.37;;;;;;;-145.06;0.00;60892.56;4854657;28;20033;-88
2022/01/28 09:39:06;;;;;;;4.35;2.50;;;;;;;-145.06;0.00;60892.56;4856952;28;20108;-89
2022/01/28 09:41:47;;;;;;;5.90;3.13;;;;;;;-145.06;0.00;60892.56;4855548;28;20033;-90
2022/01/28 09:44:29;;;;;;;10.25;3.45;;;;;;;-145.06;0.00;60892.56;4855832;28;20033;-90
2022/01/28 09:47:12;;;;;;;5.40;3.00;;;;;;;-145.06;0.00;60892.56;4838290;28;20034;-89
2022/01/28 09:49:51;;;;;;;6.25;2.38;;;;;;;-145.06;0.00;60892.56;4861242;28;20721;-89
2022/01/28 09:52:31;;;;;;;5.15;2.25;;;;;;;-145.06;0.00;60892.56;4855325;28;20041;-90
2022/01/28 09:55:12;;;;;;;;;;;;;;;-145.06;0.00;60892.56;4855881;28;20061;-90
2022/01/28 09:57:59;;;;;;;5.32;2.35;;;;;;;-145.06;0.00;60892.56;4855460;28;19963;-90
2022/01/28 10:00:38;;;;;;;2.17;1.77;;;;;;;-145.06;0.00;60892.56;4854983;28;20116;-89
2022/01/28 10:03:18;;;;;;;2.63;1.77;;;;;;;-145.06;0.00;60892.56;4856224;28;20431;-89
2022/01/28 10:05:57;;;;;;;4.10;1.50;;;;;;;-145.06;0.00;60892.56;4851184;28;20112;-88
2022/01/28 10:08:37;;;;;;;4.70;1.87;;;;;;;-145.06;0.00;60892.56;4883689;28;20029;-88
2022/01/28 10:11:19;;;;;;;2.22;1.55;;;;;;;-145.06;0.00;60892.56;4854617;28;20475;-89
2022/01/28 10:14:07;;;;;;;3.00;1.52;;;;;;;-145.06;0.00;60892.56;4842543;28;20026;-90
2022/01/28 10:17:01;;;;;;;3.80;1.60;;;;;;;-145.06;0.00;60892.56;4844195;28;20546;-89
2022/01/28 10:19:40;;;;;;;3.63;1.48;;;;;;;-145.06;0.00;60892.56;4854466;28;20033;-89
2022/01/28 10:22:20;;;;;;;2.35;1.60;;;;;;;-145.06;0.00;60892.56;4856123;28;20037;-89
2022/01/28 10:25:05;;;;;;;4.45;1.65;;;;;;;-145.06;0.00;60892.56;4854208;28;20037;-91
2022/01/28 10:28:07;;;;;;;4.57;2.00;;;;;;;6.74;0.00;60892.56;4854827;28;20033;-88
2022/01/28 10:30:46;;;;;;;4.15;2.25;;;;;;;6.78;0.00;60892.56;4878258;28;20029;-89
2022/01/28 10:33:26;;;;;;;2.60;2.03;;;;;;;-145.06;0.00;60892.56;4855248;28;20037;-89
2022/01/28 10:36:10;;;;;;;;;;;;;;;-145.06;0.00;60892.56;4854581;28;20037;-89
2022/01/28 10:38:56;;;;;;;4.50;2.15;;;;;;;-145.06;0.00;60892.56;4852454;28;20795;-88
2022/01/28 10:41:35;;;;;;;5.57;2.40;;;;;;;-145.06;0.00;60892.56;4856060;28;20427;-89
2022/01/28 10:44:15;;;;;;;4.27;2.40;;;;;;;8.08;0.00;60892.56;4854990;28;20502;-90
2022/01/28 10:46:58;;;;;;;5.50;1.90;;;;;;;-145.06;0.00;60892.56;4849739;28;20359;-89
2022/01/28 10:49:37;;;;;;;3.38;1.80;;;;;;;-145.06;0.00;60892.56;4855754;28;20116;-90
2022/01/28 10:52:15;;;;;;;3.20;2.00;;;;;;;-145.06;0.00;60892.56;4849491;28;20587;-89
2022/01/28 10:54:58;;;;;;;3.22;1.60;;;;;;;-145.06;0.00;60892.56;4854186;28;20041;-89
2022/01/28 10:57:37;;;;;;;4.20;1.98;;;;;;;-145.06;0.00;60892.56;4855265;28;20108;-90
2022/01/28 11:00:16;;;;;;;4.10;1.98;;;;;;;7.92;0.00;60892.56;4856611;28;20037;-89
2022/01/28 11:02:58;;;;;;;4.18;2.30;;;;;;;-145.06;0.00;60892.56;4848530;28;20557;-90
2022/01/28 11:05:38;;;;;;;7.68;2.75;;;;;;;8.00;0.00;60892.56;4882601;28;20038;-90
2022/01/28 11:08:17;;;;;;;;;;;;;;;8.08;0.00;60892.56;4854659;28;20029;-90
2022/01/28 11:10:57;;;;;;;4.90;2.45;;;;;;;-145.06;0.00;60892.56;4855479;28;19909;-89
2022/01/28 11:13:37;;;;;;;3.97;2.10;;;;;;;-145.06;0.00;60892.56;4858700;28;20029;-89
2022/01/28 11:16:16;;;;;;;4.00;2.13;;;;;;;-145.06;0.00;60892.56;4857215;28;20499;-89
2022/01/28 11:18:57;;;;;;;3.13;2.07;;;;;;;-145.06;0.00;60892.56;4858974;28;20029;-89
2022/01/28 11:21:52;;;;;;;4.35;2.30;;;;;;;-145.06;0.00;60892.56;4872828;28;20272;-89
2022/01/28 11:24:59;;;;;;;5.18;1.88;;;;;;;-145.06;0.00;60892.56;4842257;28;20037;-89
2022/01/28 11:27:40;;;;;;;4.32;2.10;;;;;;;-145.06;0.00;60892.56;4846575;28;20025;-90
2022/01/28 11:30:28;;;;;;;5.28;2.28;;;;;;;10.68;0.00;60892.56;4855740;28;20116;-90
2022/01/28 11:33:11;;;;;;;2.65;1.60;;;;;;;8.98;0.00;60892.56;4885493;28;20503;-89
2022/01/28 11:35:53;;;;;;;5.07;2.20;;;;;;;-145.06;0.00;60892.56;4857812;28;20037;-89
2022/01/28 11:38:41;;;;;;;5.18;2.60;;;;;;;-145.06;0.00;60892.56;4878924;28;20021;-88
2022/01/28 11:41:26;;;;;;;5.00;3.00;;;;;;;-145.06;0.00;60892.56;4873869;28;20021;-89
2022/01/28 11:44:12;;;;;;;5.90;3.30;;;;;;;-145.06;0.00;60892.56;4867533;28;20032;-89
2022/01/28 11:47:00;;;;;;;6.10;2.80;;;;;;;-145.06;0.00;60892.56;4875290;28;20033;-88
2022/01/28 11:50:01;;;;;;;6.35;3.45;;;;;;;-145.06;0.00;60892.56;4881474;28;20499;-90
2022/01/28 11:52:46;;;;;;;6.95;2.60;;;;;;;-145.06;0.00;60892.56;4858459;28;20384;-89
2022/01/28 11:55:25;;;;;;;6.55;2.55;;;;;;;-145.06;0.00;60892.56;4858340;28;20033;-89
2022/01/28 11:58:05;;;;;;;4.47;2.33;;;;;;;-145.06;0.00;60892.56;4859754;28;20029;-89
2022/01/28 12:00:47;;;;;;;4.30;1.98;;;;;;;-145.06;0.00;60892.56;4857709;28;20029;-89
2022/01/28 12:03:29;;;;;;;3.17;2.20;;;;;;;-145.06;0.00;60892.56;4872695;28;20033;-89
2022/01/28 12:06:11;;;;;;;5.95;2.20;;;;;;;-145.06;0.00;60892.56;4859754;28;20033;-90
2022/01/28 12:08:51;;;;;;;4.55;2.20;;;;;;;-145.06;0.00;60892.56;4839143;28;20030;-89
2022/01/28 12:11:46;;;;;;;4.25;2.15;;;;;;;-145.06;0.00;60892.56;4866901;28;20025;-90
2022/01/28 12:14:52;;;;;;;4.03;2.50;;;;;;;-145.06;0.00;60892.56;4838979;28;20034;-90
2022/01/28 12:17:31;;;;;;;4.72;2.15;;;;;;;-145.06;0.00;60892.56;4885912;28;20042;-89
2022/01/28 12:20:14;;;;;;;4.10;2.20;;;;;;;-145.06;0.00;60892.56;4863221;28;20364;-90
2022/01/28 12:23:02;;;;;;;3.95;2.10;;;;;;;-145.06;0.00;60892.56;4882546;28;20120;-89
2022/01/28 12:25:41;;;;;;;4.57;2.00;;;;;;;-145.06;0.00;60892.56;4859851;28;20033;-89
2022/01/28 12:28:23;;;;;;;3.63;2.00;;;;;;;-145.06;0.00;60892.56;4860246;28;20029;-88
2022/01/28 12:31:06;;;;;;;3.65;1.90;;;;;;;8.19;0.00;60892.56;4857728;28;20443;-89
2022/01/28 12:33:49;;;;;;;3.15;1.73;;;;;;;9.38;0.00;60892.56;4857634;28;20037;-89
2022/01/28 12:36:38;;;;;;;3.00;1.80;;;;;;;-145.06;0.00;60892.56;4857778;28;20030;-90
2022/01/28 12:39:31;;;;;;;5.85;1.90;;;;;;;-145.06;0.00;60892.56;4857998;28;20033;-89
2022/01/28 12:42:23;;;;;;;3.17;1.40;;;;;;;-145.06;0.00;60892.56;4858992;28;20416;-90
2022/01/28 12:45:03;;;;;;;4.47;1.42;;;;;;;-145.06;0.00;60892.56;4853806;28;20057;-89
2022/01/28 12:47:44;;;;;;;2.83;1.30;;;;;;;-145.06;0.00;60892.56;4850474;28;20022;-90
2022/01/28 12:50:24;;;;;;;2.13;0.93;;;;;;;-145.06;0.00;60892.56;4862762;28;20038;-89
2022/01/28 12:53:03;;;;;;;2.55;1.13;;;;;;;-145.06;0.00;60892.56;4856767;28;20029;-90
2022/01/28 12:55:42;;;;;;;3.43;2.00;;;;;;;-145.06;0.00;60892.56;4848648;28;20041;-89
2022/01/28 12:58:58;;;;;;;3.67;1.50;;;;;;;8.41;0.00;60892.56;4856507;28;20482;-89
2022/01/28 13:01:37;;;;;;;4.55;1.77;;;;;;;-145.06;0.00;60892.56;4857099;28;20025;-88
2022/01/28 13:04:20;;;;;;;4.00;2.08;;;;;;;8.33;0.00;60892.56;4857540;28;20656;-89
2022/01/28 13:08:24;;;;;;;1.88;1.33;;;;;;;-145.06;0.00;60892.56;4849383;28;20129;-91
2022/01/28 13:09:58;;;;;;;3.88;2.05;;;;;;;-145.06;0.00;60892.56;4839266;28;20029;-89
2022/01/28 13:12:37;;;;;;;3.58;2.10;;;;;;;-145.06;0.00;60892.56;4870778;28;20113;-90
2022/01/28 13:15:17;;;;;;;3.20;1.97;;;;;;;-145.06;0.00;60892.56;4854055;28;20026;-90
2022/01/28 13:17:57;;;;;;;;;;;;;;;-145.06;0.00;60892.56;4857969;28;20029;-89
2022/01/28 13:20:38;;;;;;;;;;;;;;;-145.06;0.00;60892.56;4860459;28;19940;-90
2022/01/28 13:23:17;;;;;;;4.40;2.10;;;;;;;-145.06;0.00;60892.56;4857373;28;19956;-89
2022/01/28 13:26:04;;;;;;;3.92;2.25;;;;;;;-145.06;0.00;60892.56;4858156;28;20025;-90
2022/01/28 13:28:44;;;;;;;4.45;2.20;;;;;;;-145.06;0.00;60892.56;4854613;28;20033;-90
2022/01/28 13:31:24;;;;;;;;;;;;;;;-145.06;0.00;60892.56;4854885;28;20108;-90
2022/01/28 13:34:06;;;;;;;;;;;;;;;-145.06;0.00;60892.56;4850041;28;19917;-90
2022/01/28 13:36:48;;;;;;;4.22;2.40;;;;;;;-145.06;0.00;60892.56;4857201;28;19921;-89
2022/01/28 13:39:28;;;;;;;4.35;2.35;;;;;;;-145.06;0.00;60892.56;4883458;28;20108;-90
2022/01/28 13:42:13;;;;;;;4.82;2.28;;;;;;;-145.06;0.00;60892.56;4854053;28;20120;-89
2022/01/28 13:44:52;;;;;;;6.20;2.58;;;;;;;-145.06;0.00;60892.56;4852831;28;20037;-89
2022/01/28 13:47:49;;;;;;;4.63;2.33;;;;;;;-145.06;0.00;60892.56;4884696;28;20021;-91
2022/01/28 13:50:34;;;;;;;5.47;2.75;;;;;;;-145.06;0.00;60892.56;4856318;28;20120;-89
2022/01/28 13:56:13;;;;;;;4.43;2.30;;;;;;;-145.06;0.00;60892.56;4854642;28;20026;-90
2022/01/28 13:58:53;;;;;;;4.43;2.30;;;;;;;-145.06;0.00;60892.56;4854395;28;20029;-90
2022/01/28 14:01:35;;;;;;;5.90;2.60;;;;;;;-145.06;0.00;60892.56;4854377;28;20029;-89
2022/01/28 14:04:21;;;;;;;4.43;2.58;;;;;;;-145.06;0.00;60892.56;4853740;28;20124;-90
2022/01/28 14:07:20;;;;;;;3.30;2.30;;;;;;;-145.06;0.00;60892.56;4852738;28;20114;-89
2022/01/28 14:10:03;;;;;;;3.85;2.42;;;;;;;-145.06;0.00;60892.56;4854979;28;20037;-89
2022/01/28 14:12:45;;;;;;;3.67;2.20;;;;;;;-145.06;0.00;60892.56;4855914;28;20468;-90